sensor_id;sensor_type;location;lat;lon;timestamp;P1;durP1;ratioP1;P2;durP2;ratioP2
10963;SDS011;5534;48.784;9.190;2022-09-03T00:02:44;3.83;;;1.25;;
10963;SDS011;5534;48.784;9.190;2022-09-03T00:08:16;3.17;;;1.45;;
10963;SDS011;5534;48.784;9.190;2022-09-03T00:10:52;1.20;;;1.10;;
10963;SDS011;5534;48.784;9.190;2022-09-03T00:16:24;2.70;;;1.60;;
10963;SDS011;5534;48.784;9.190;2022-09-03T00:18:55;2.92;;;1.95;;
10963;SDS011;5534;48.784;9.190;2022-09-03T00:21:40;3.38;;;1.40;;
10963;SDS011;5534;48.784;9.190;2022-09-03T00:24:12;3.05;;;1.30;;
10963;SDS011;5534;48.784;9.190;2022-09-03T00:26:42;2.95;;;1.30;;
10963;SDS011;5534;48.784;9.190;2022-09-03T00:29:17;1.67;;;1.30;;
10963;SDS011;5534;48.784;9.190;2022-09-03T00:31:50;1.95;;;1.30;;
10963;SDS011;5534;48.784;9.190;2022-09-03T00:34:33;2.30;;;1.42;;
10963;SDS011;5534;48.784;9.190;2022-09-03T00:37:03;1.73;;;1.30;;
10963;SDS011;5534;48.784;9.190;2022-09-03T00:39:29;1.92;;;1.40;;
10963;SDS011;5534;48.784;9.190;2022-09-03T00:42:32;4.95;;;1.60;;
10963;SDS011;5534;48.784;9.190;2022-09-03T00:45:10;3.10;;;1.30;;
10963;SDS011;5534;48.784;9.190;2022-09-03T00:48:25;1.30;;;1.05;;
10963;SDS011;5534;48.784;9.190;2022-09-03T00:53:47;2.22;;;1.20;;
10963;SDS011;5534;48.784;9.190;2022-09-03T00:56:44;2.72;;;1.38;;
10963;SDS011;5534;48.784;9.190;2022-09-03T00:59:33;1.00;;;0.90;;
10963;SDS011;5534;48.784;9.190;2022-09-03T01:02:15;2.35;;;1.05;;
10963;SDS011;5534;48.784;9.190;2022-09-03T01:05:01;1.90;;;1.08;;
10963;SDS011;5534;48.784;9.190;2022-09-03T01:08:06;1.35;;;1.08;;
10963;SDS011;5534;48.784;9.190;2022-09-03T01:13:21;2.33;;;1.27;;
10963;SDS011;5534;48.784;9.190;2022-09-03T01:18:44;2.03;;;1.50;;
10963;SDS011;5534;48.784;9.190;2022-09-03T01:29:43;1.75;;;1.20;;
10963;SDS011;5534;48.784;9.190;2022-09-03T01:32:18;2.28;;;1.05;;
10963;SDS011;5534;48.784;9.190;2022-09-03T01:40:17;2.58;;;1.00;;
10963;SDS011;5534;48.784;9.190;2022-09-03T01:43:00;1.55;;;0.90;;
10963;SDS011;5534;48.784;9.190;2022-09-03T01:45:54;1.33;;;1.10;;
10963;SDS011;5534;48.784;9.190;2022-09-03T01:48:42;1.30;;;1.10;;
10963;SDS011;5534;48.784;9.190;2022-09-03T01:59:10;1.58;;;0.98;;
10963;SDS011;5534;48.784;9.190;2022-09-03T02:01:55;3.05;;;1.15;;
10963;SDS011;5534;48.784;9.190;2022-09-03T02:04:27;1.98;;;0.95;;
10963;SDS011;5534;48.784;9.190;2022-09-03T02:06:54;2.58;;;0.90;;
10963;SDS011;5534;48.784;9.190;2022-09-03T02:09:21;0.90;;;0.80;;
10963;SDS011;5534;48.784;9.190;2022-09-03T02:12:10;2.40;;;1.45;;
10963;SDS011;5534;48.784;9.190;2022-09-03T02:14:38;2.33;;;1.40;;
10963;SDS011;5534;48.784;9.190;2022-09-03T02:17:04;1.80;;;1.30;;
10963;SDS011;5534;48.784;9.190;2022-09-03T02:19:31;2.55;;;1.45;;
10963;SDS011;5534;48.784;9.190;2022-09-03T02:21:58;1.67;;;1.30;;
10963;SDS011;5534;48.784;9.190;2022-09-03T02:24:24;1.77;;;1.17;;
10963;SDS011;5534;48.784;9.190;2022-09-03T02:26:52;2.00;;;1.20;;
10963;SDS011;5534;48.784;9.190;2022-09-03T02:29:18;1.75;;;1.30;;
10963;SDS011;5534;48.784;9.190;2022-09-03T02:31:44;3.88;;;1.60;;
10963;SDS011;5534;48.784;9.190;2022-09-03T02:34:10;2.67;;;1.20;;
10963;SDS011;5534;48.784;9.190;2022-09-03T02:36:38;1.13;;;0.88;;
10963;SDS011;5534;48.784;9.190;2022-09-03T02:39:06;1.50;;;1.10;;
10963;SDS011;5534;48.784;9.190;2022-09-03T02:41:32;3.45;;;1.20;;
10963;SDS011;5534;48.784;9.190;2022-09-03T02:44:07;1.42;;;1.02;;
10963;SDS011;5534;48.784;9.190;2022-09-03T02:46:39;2.13;;;1.33;;
10963;SDS011;5534;48.784;9.190;2022-09-03T02:49:11;3.45;;;1.65;;
10963;SDS011;5534;48.784;9.190;2022-09-03T02:51:38;3.83;;;1.20;;
10963;SDS011;5534;48.784;9.190;2022-09-03T02:54:06;1.67;;;1.23;;
10963;SDS011;5534;48.784;9.190;2022-09-03T02:56:33;2.38;;;1.15;;
10963;SDS011;5534;48.784;9.190;2022-09-03T02:58:59;1.67;;;0.90;;
10963;SDS011;5534;48.784;9.190;2022-09-03T03:01:27;2.10;;;1.02;;
10963;SDS011;5534;48.784;9.190;2022-09-03T03:03:52;1.05;;;0.77;;
10963;SDS011;5534;48.784;9.190;2022-09-03T03:06:18;1.50;;;0.82;;
10963;SDS011;5534;48.784;9.190;2022-09-03T03:08:45;4.00;;;1.00;;
10963;SDS011;5534;48.784;9.190;2022-09-03T03:11:12;2.38;;;0.98;;
10963;SDS011;5534;48.784;9.190;2022-09-03T03:13:40;1.30;;;0.70;;
10963;SDS011;5534;48.784;9.190;2022-09-03T03:16:06;2.95;;;1.02;;
10963;SDS011;5534;48.784;9.190;2022-09-03T03:18:32;1.90;;;1.08;;
10963;SDS011;5534;48.784;9.190;2022-09-03T03:21:05;5.07;;;1.10;;
10963;SDS011;5534;48.784;9.190;2022-09-03T03:23:34;1.13;;;0.77;;
10963;SDS011;5534;48.784;9.190;2022-09-03T03:26:01;1.85;;;1.02;;
10963;SDS011;5534;48.784;9.190;2022-09-03T03:28:28;3.35;;;1.10;;
10963;SDS011;5534;48.784;9.190;2022-09-03T03:30:58;1.65;;;1.00;;
10963;SDS011;5534;48.784;9.190;2022-09-03T03:33:29;1.63;;;1.00;;
10963;SDS011;5534;48.784;9.190;2022-09-03T03:35:55;2.38;;;1.25;;
10963;SDS011;5534;48.784;9.190;2022-09-03T03:38:21;1.25;;;1.08;;
10963;SDS011;5534;48.784;9.190;2022-09-03T03:40:46;2.67;;;1.15;;
10963;SDS011;5534;48.784;9.190;2022-09-03T03:43:12;2.10;;;1.38;;
10963;SDS011;5534;48.784;9.190;2022-09-03T03:45:38;1.23;;;0.90;;
10963;SDS011;5534;48.784;9.190;2022-09-03T03:48:04;1.10;;;0.80;;
10963;SDS011;5534;48.784;9.190;2022-09-03T03:50:30;2.00;;;1.13;;
10963;SDS011;5534;48.784;9.190;2022-09-03T03:52:58;4.22;;;1.00;;
10963;SDS011;5534;48.784;9.190;2022-09-03T03:55:24;2.25;;;1.20;;
10963;SDS011;5534;48.784;9.190;2022-09-03T03:57:50;2.03;;;1.13;;
10963;SDS011;5534;48.784;9.190;2022-09-03T04:00:16;1.58;;;1.10;;
10963;SDS011;5534;48.784;9.190;2022-09-03T04:02:42;1.30;;;0.95;;
10963;SDS011;5534;48.784;9.190;2022-09-03T04:05:08;1.08;;;0.82;;
10963;SDS011;5534;48.784;9.190;2022-09-03T04:07:34;1.17;;;0.90;;
10963;SDS011;5534;48.784;9.190;2022-09-03T04:09:59;1.95;;;0.90;;
10963;SDS011;5534;48.784;9.190;2022-09-03T04:12:25;1.52;;;1.05;;
10963;SDS011;5534;48.784;9.190;2022-09-03T04:14:51;1.60;;;0.80;;
10963;SDS011;5534;48.784;9.190;2022-09-03T04:17:17;2.15;;;1.20;;
10963;SDS011;5534;48.784;9.190;2022-09-03T04:19:43;4.50;;;1.30;;
10963;SDS011;5534;48.784;9.190;2022-09-03T04:22:10;2.45;;;1.20;;
10963;SDS011;5534;48.784;9.190;2022-09-03T04:24:36;1.40;;;1.00;;
10963;SDS011;5534;48.784;9.190;2022-09-03T04:27:03;5.53;;;1.20;;
10963;SDS011;5534;48.784;9.190;2022-09-03T04:29:29;2.35;;;1.10;;
10963;SDS011;5534;48.784;9.190;2022-09-03T04:31:55;1.42;;;1.08;;
10963;SDS011;5534;48.784;9.190;2022-09-03T04:34:44;2.10;;;1.08;;
10963;SDS011;5534;48.784;9.190;2022-09-03T04:37:10;1.38;;;1.27;;
10963;SDS011;5534;48.784;9.190;2022-09-03T04:39:36;0.90;;;0.85;;
10963;SDS011;5534;48.784;9.190;2022-09-03T04:42:01;1.23;;;1.00;;
10963;SDS011;5534;48.784;9.190;2022-09-03T04:44:27;2.30;;;0.90;;
10963;SDS011;5534;48.784;9.190;2022-09-03T04:46:53;1.60;;;1.17;;
10963;SDS011;5534;48.784;9.190;2022-09-03T04:49:19;1.08;;;0.98;;
10963;SDS011;5534;48.784;9.190;2022-09-03T04:51:45;2.47;;;1.10;;
10963;SDS011;5534;48.784;9.190;2022-09-03T04:54:10;1.67;;;1.00;;
10963;SDS011;5534;48.784;9.190;2022-09-03T04:56:37;1.15;;;1.02;;
10963;SDS011;5534;48.784;9.190;2022-09-03T04:59:04;5.97;;;1.20;;
10963;SDS011;5534;48.784;9.190;2022-09-03T05:01:31;1.00;;;0.90;;
10963;SDS011;5534;48.784;9.190;2022-09-03T05:03:59;2.78;;;1.10;;
10963;SDS011;5534;48.784;9.190;2022-09-03T05:06:26;3.17;;;1.00;;
10963;SDS011;5534;48.784;9.190;2022-09-03T05:08:53;2.50;;;1.15;;
10963;SDS011;5534;48.784;9.190;2022-09-03T05:11:19;2.47;;;1.02;;
10963;SDS011;5534;48.784;9.190;2022-09-03T05:13:47;2.58;;;1.20;;
10963;SDS011;5534;48.784;9.190;2022-09-03T05:16:15;1.67;;;1.20;;
10963;SDS011;5534;48.784;9.190;2022-09-03T05:18:41;1.83;;;1.00;;
10963;SDS011;5534;48.784;9.190;2022-09-03T05:21:09;1.50;;;1.05;;
10963;SDS011;5534;48.784;9.190;2022-09-03T05:23:37;1.23;;;1.13;;
10963;SDS011;5534;48.784;9.190;2022-09-03T05:26:10;1.52;;;1.02;;
10963;SDS011;5534;48.784;9.190;2022-09-03T05:28:41;1.30;;;1.05;;
10963;SDS011;5534;48.784;9.190;2022-09-03T05:31:09;4.25;;;1.33;;
10963;SDS011;5534;48.784;9.190;2022-09-03T05:33:36;2.58;;;1.25;;
10963;SDS011;5534;48.784;9.190;2022-09-03T05:36:05;2.15;;;1.20;;
10963;SDS011;5534;48.784;9.190;2022-09-03T05:38:32;1.65;;;1.30;;
10963;SDS011;5534;48.784;9.190;2022-09-03T05:40:59;2.17;;;1.40;;
10963;SDS011;5534;48.784;9.190;2022-09-03T05:43:30;1.30;;;1.20;;
10963;SDS011;5534;48.784;9.190;2022-09-03T05:45:57;1.30;;;1.20;;
10963;SDS011;5534;48.784;9.190;2022-09-03T05:48:25;2.33;;;1.38;;
10963;SDS011;5534;48.784;9.190;2022-09-03T05:51:04;1.45;;;1.20;;
10963;SDS011;5534;48.784;9.190;2022-09-03T05:53:34;2.67;;;1.20;;
10963;SDS011;5534;48.784;9.190;2022-09-03T05:56:02;3.97;;;1.40;;
10963;SDS011;5534;48.784;9.190;2022-09-03T05:58:32;1.80;;;1.30;;
10963;SDS011;5534;48.784;9.190;2022-09-03T06:01:08;1.50;;;1.38;;
10963;SDS011;5534;48.784;9.190;2022-09-03T06:03:38;1.73;;;1.25;;
10963;SDS011;5534;48.784;9.190;2022-09-03T06:06:05;3.35;;;1.20;;
10963;SDS011;5534;48.784;9.190;2022-09-03T06:08:32;2.28;;;1.50;;
10963;SDS011;5534;48.784;9.190;2022-09-03T06:10:59;1.95;;;1.27;;
10963;SDS011;5534;48.784;9.190;2022-09-03T06:13:27;1.58;;;1.17;;
10963;SDS011;5534;48.784;9.190;2022-09-03T06:15:57;1.20;;;1.10;;
10963;SDS011;5534;48.784;9.190;2022-09-03T06:18:24;1.60;;;1.40;;
10963;SDS011;5534;48.784;9.190;2022-09-03T06:20:57;1.52;;;1.30;;
10963;SDS011;5534;48.784;9.190;2022-09-03T06:23:25;2.25;;;1.50;;
10963;SDS011;5534;48.784;9.190;2022-09-03T06:26:11;1.60;;;1.30;;
10963;SDS011;5534;48.784;9.190;2022-09-03T06:28:38;2.22;;;1.35;;
10963;SDS011;5534;48.784;9.190;2022-09-03T06:31:08;1.10;;;1.00;;
10963;SDS011;5534;48.784;9.190;2022-09-03T06:33:36;1.77;;;1.20;;
10963;SDS011;5534;48.784;9.190;2022-09-03T06:36:03;1.65;;;1.38;;
10963;SDS011;5534;48.784;9.190;2022-09-03T06:38:34;1.40;;;1.17;;
10963;SDS011;5534;48.784;9.190;2022-09-03T06:41:02;1.58;;;1.17;;
10963;SDS011;5534;48.784;9.190;2022-09-03T06:43:30;1.48;;;1.13;;
10963;SDS011;5534;48.784;9.190;2022-09-03T06:45:59;1.50;;;1.40;;
10963;SDS011;5534;48.784;9.190;2022-09-03T06:48:28;2.17;;;1.58;;
10963;SDS011;5534;48.784;9.190;2022-09-03T06:51:02;3.42;;;1.48;;
10963;SDS011;5534;48.784;9.190;2022-09-03T06:53:31;1.60;;;1.25;;
10963;SDS011;5534;48.784;9.190;2022-09-03T06:55:59;2.05;;;1.30;;
10963;SDS011;5534;48.784;9.190;2022-09-03T06:58:31;2.28;;;1.38;;
10963;SDS011;5534;48.784;9.190;2022-09-03T07:01:00;2.28;;;1.50;;
10963;SDS011;5534;48.784;9.190;2022-09-03T07:03:28;2.80;;;1.52;;
10963;SDS011;5534;48.784;9.190;2022-09-03T07:05:58;1.92;;;1.40;;
10963;SDS011;5534;48.784;9.190;2022-09-03T07:08:25;2.33;;;1.40;;
10963;SDS011;5534;48.784;9.190;2022-09-03T07:10:51;2.17;;;1.60;;
10963;SDS011;5534;48.784;9.190;2022-09-03T07:13:17;1.75;;;1.50;;
10963;SDS011;5534;48.784;9.190;2022-09-03T07:15:44;2.80;;;1.60;;
10963;SDS011;5534;48.784;9.190;2022-09-03T07:18:10;1.85;;;1.40;;
10963;SDS011;5534;48.784;9.190;2022-09-03T07:20:35;1.45;;;1.20;;
10963;SDS011;5534;48.784;9.190;2022-09-03T07:23:01;1.98;;;1.33;;
10963;SDS011;5534;48.784;9.190;2022-09-03T07:25:27;2.00;;;1.48;;
10963;SDS011;5534;48.784;9.190;2022-09-03T07:27:55;1.73;;;1.40;;
10963;SDS011;5534;48.784;9.190;2022-09-03T07:30:22;1.20;;;1.10;;
10963;SDS011;5534;48.784;9.190;2022-09-03T07:32:50;3.50;;;1.60;;
10963;SDS011;5534;48.784;9.190;2022-09-03T07:35:18;1.50;;;1.40;;
10963;SDS011;5534;48.784;9.190;2022-09-03T07:37:44;2.38;;;1.38;;
10963;SDS011;5534;48.784;9.190;2022-09-03T07:40:09;2.50;;;1.40;;
10963;SDS011;5534;48.784;9.190;2022-09-03T07:42:36;2.50;;;1.55;;
10963;SDS011;5534;48.784;9.190;2022-09-03T07:45:06;2.42;;;1.73;;
10963;SDS011;5534;48.784;9.190;2022-09-03T07:47:35;2.05;;;1.40;;
10963;SDS011;5534;48.784;9.190;2022-09-03T07:50:03;3.40;;;1.88;;
10963;SDS011;5534;48.784;9.190;2022-09-03T07:52:29;3.75;;;1.60;;
10963;SDS011;5534;48.784;9.190;2022-09-03T07:54:55;2.50;;;1.60;;
10963;SDS011;5534;48.784;9.190;2022-09-03T07:57:21;4.20;;;1.77;;
10963;SDS011;5534;48.784;9.190;2022-09-03T07:59:47;2.33;;;1.90;;
10963;SDS011;5534;48.784;9.190;2022-09-03T08:02:12;3.38;;;1.48;;
10963;SDS011;5534;48.784;9.190;2022-09-03T08:04:38;1.80;;;1.70;;
10963;SDS011;5534;48.784;9.190;2022-09-03T08:07:05;3.65;;;1.52;;
10963;SDS011;5534;48.784;9.190;2022-09-03T08:09:31;2.00;;;1.70;;
10963;SDS011;5534;48.784;9.190;2022-09-03T08:11:57;2.03;;;1.70;;
10963;SDS011;5534;48.784;9.190;2022-09-03T08:14:24;4.63;;;1.85;;
10963;SDS011;5534;48.784;9.190;2022-09-03T08:16:50;3.22;;;1.50;;
10963;SDS011;5534;48.784;9.190;2022-09-03T08:19:16;1.70;;;1.40;;
10963;SDS011;5534;48.784;9.190;2022-09-03T08:21:42;4.75;;;1.48;;
10963;SDS011;5534;48.784;9.190;2022-09-03T08:24:09;2.05;;;1.60;;
10963;SDS011;5534;48.784;9.190;2022-09-03T08:26:37;2.28;;;1.67;;
10963;SDS011;5534;48.784;9.190;2022-09-03T08:29:05;1.65;;;1.55;;
10963;SDS011;5534;48.784;9.190;2022-09-03T08:31:34;4.30;;;1.65;;
10963;SDS011;5534;48.784;9.190;2022-09-03T08:34:01;2.03;;;1.75;;
10963;SDS011;5534;48.784;9.190;2022-09-03T08:36:30;1.92;;;1.63;;
10963;SDS011;5534;48.784;9.190;2022-09-03T08:38:58;2.63;;;1.92;;
10963;SDS011;5534;48.784;9.190;2022-09-03T08:41:34;3.65;;;1.92;;
10963;SDS011;5534;48.784;9.190;2022-09-03T08:45:04;3.22;;;1.70;;
10963;SDS011;5534;48.784;9.190;2022-09-03T08:47:33;2.70;;;2.00;;
10963;SDS011;5534;48.784;9.190;2022-09-03T08:52:55;2.38;;;1.63;;
10963;SDS011;5534;48.784;9.190;2022-09-03T08:55:27;3.88;;;1.73;;
10963;SDS011;5534;48.784;9.190;2022-09-03T09:18:38;2.80;;;1.63;;
10963;SDS011;5534;48.784;9.190;2022-09-03T09:21:12;1.80;;;1.70;;
10963;SDS011;5534;48.784;9.190;2022-09-03T09:23:39;5.50;;;2.03;;
10963;SDS011;5534;48.784;9.190;2022-09-03T09:26:12;2.80;;;1.80;;
10963;SDS011;5534;48.784;9.190;2022-09-03T09:28:41;2.00;;;1.73;;
10963;SDS011;5534;48.784;9.190;2022-09-03T09:31:14;2.00;;;1.83;;
10963;SDS011;5534;48.784;9.190;2022-09-03T09:33:42;3.80;;;2.05;;
10963;SDS011;5534;48.784;9.190;2022-09-03T09:36:10;2.72;;;2.10;;
10963;SDS011;5534;48.784;9.190;2022-09-03T09:38:40;2.75;;;2.10;;
10963;SDS011;5534;48.784;9.190;2022-09-03T09:41:07;2.40;;;2.20;;
10963;SDS011;5534;48.784;9.190;2022-09-03T09:43:38;4.03;;;2.10;;
10963;SDS011;5534;48.784;9.190;2022-09-03T09:46:15;2.60;;;2.00;;
10963;SDS011;5534;48.784;9.190;2022-09-03T09:48:49;2.20;;;2.00;;
10963;SDS011;5534;48.784;9.190;2022-09-03T09:51:21;2.10;;;1.83;;
10963;SDS011;5534;48.784;9.190;2022-09-03T09:56:44;2.42;;;2.20;;
10963;SDS011;5534;48.784;9.190;2022-09-03T09:59:12;3.25;;;2.03;;
10963;SDS011;5534;48.784;9.190;2022-09-03T10:01:40;2.30;;;2.00;;
10963;SDS011;5534;48.784;9.190;2022-09-03T10:06:34;2.42;;;1.90;;
10963;SDS011;5534;48.784;9.190;2022-09-03T10:09:20;2.45;;;2.20;;
10963;SDS011;5534;48.784;9.190;2022-09-03T10:11:49;2.28;;;1.88;;
10963;SDS011;5534;48.784;9.190;2022-09-03T10:14:44;2.25;;;2.00;;
10963;SDS011;5534;48.784;9.190;2022-09-03T10:17:48;2.20;;;2.00;;
10963;SDS011;5534;48.784;9.190;2022-09-03T10:20:21;2.58;;;1.90;;
10963;SDS011;5534;48.784;9.190;2022-09-03T10:23:04;5.82;;;2.30;;
10963;SDS011;5534;48.784;9.190;2022-09-03T10:28:32;4.22;;;2.45;;
10963;SDS011;5534;48.784;9.190;2022-09-03T10:42:05;2.08;;;1.88;;
10963;SDS011;5534;48.784;9.190;2022-09-03T10:50:22;3.53;;;1.80;;
10963;SDS011;5534;48.784;9.190;2022-09-03T11:01:21;3.30;;;1.88;;
10963;SDS011;5534;48.784;9.190;2022-09-03T11:03:55;3.33;;;2.08;;
10963;SDS011;5534;48.784;9.190;2022-09-03T11:07:04;2.88;;;2.10;;
10963;SDS011;5534;48.784;9.190;2022-09-03T11:15:36;2.17;;;1.98;;
10963;SDS011;5534;48.784;9.190;2022-09-03T11:18:22;3.10;;;2.28;;
10963;SDS011;5534;48.784;9.190;2022-09-03T11:20:54;2.40;;;2.20;;
10963;SDS011;5534;48.784;9.190;2022-09-03T11:23:24;3.05;;;2.10;;
10963;SDS011;5534;48.784;9.190;2022-09-03T11:25:57;2.80;;;2.35;;
10963;SDS011;5534;48.784;9.190;2022-09-03T11:31:36;2.40;;;2.20;;
10963;SDS011;5534;48.784;9.190;2022-09-03T11:36:52;3.55;;;2.60;;
10963;SDS011;5534;48.784;9.190;2022-09-03T11:39:41;2.72;;;2.13;;
10963;SDS011;5534;48.784;9.190;2022-09-03T11:42:11;2.60;;;2.08;;
10963;SDS011;5534;48.784;9.190;2022-09-03T11:44:50;2.63;;;2.25;;
10963;SDS011;5534;48.784;9.190;2022-09-03T11:47:20;2.85;;;2.03;;
10963;SDS011;5534;48.784;9.190;2022-09-03T11:49:48;2.63;;;2.42;;
10963;SDS011;5534;48.784;9.190;2022-09-03T11:52:26;4.22;;;2.30;;
10963;SDS011;5534;48.784;9.190;2022-09-03T11:54:54;2.70;;;2.25;;
10963;SDS011;5534;48.784;9.190;2022-09-03T11:57:29;2.83;;;2.28;;
10963;SDS011;5534;48.784;9.190;2022-09-03T12:00:08;2.33;;;2.13;;
10963;SDS011;5534;48.784;9.190;2022-09-03T12:02:55;2.85;;;2.10;;
10963;SDS011;5534;48.784;9.190;2022-09-03T12:05:30;3.60;;;2.10;;
10963;SDS011;5534;48.784;9.190;2022-09-03T12:14:05;2.20;;;2.00;;
10963;SDS011;5534;48.784;9.190;2022-09-03T12:17:36;2.30;;;1.90;;
10963;SDS011;5534;48.784;9.190;2022-09-03T12:19:49;2.15;;;1.95;;
10963;SDS011;5534;48.784;9.190;2022-09-03T12:22:18;1.73;;;1.63;;
10963;SDS011;5534;48.784;9.190;2022-09-03T12:24:46;2.33;;;2.13;;
10963;SDS011;5534;48.784;9.190;2022-09-03T12:27:23;2.55;;;2.35;;
10963;SDS011;5534;48.784;9.190;2022-09-03T12:29:51;6.03;;;2.55;;
10963;SDS011;5534;48.784;9.190;2022-09-03T12:32:25;3.20;;;2.40;;
10963;SDS011;5534;48.784;9.190;2022-09-03T12:34:56;3.38;;;2.33;;
10963;SDS011;5534;48.784;9.190;2022-09-03T12:37:24;5.65;;;2.30;;
10963;SDS011;5534;48.784;9.190;2022-09-03T12:39:54;2.97;;;2.00;;
10963;SDS011;5534;48.784;9.190;2022-09-03T12:42:30;2.95;;;1.83;;
10963;SDS011;5534;48.784;9.190;2022-09-03T12:45:07;3.45;;;1.60;;
10963;SDS011;5534;48.784;9.190;2022-09-03T12:47:40;2.17;;;1.60;;
10963;SDS011;5534;48.784;9.190;2022-09-03T12:50:08;2.17;;;1.77;;
10963;SDS011;5534;48.784;9.190;2022-09-03T12:52:56;3.25;;;1.80;;
10963;SDS011;5534;48.784;9.190;2022-09-03T12:55:34;3.20;;;1.95;;
10963;SDS011;5534;48.784;9.190;2022-09-03T12:58:18;2.20;;;1.80;;
10963;SDS011;5534;48.784;9.190;2022-09-03T13:01:07;2.85;;;1.33;;
10963;SDS011;5534;48.784;9.190;2022-09-03T13:06:41;2.25;;;1.40;;
10963;SDS011;5534;48.784;9.190;2022-09-03T13:09:28;1.90;;;1.50;;
10963;SDS011;5534;48.784;9.190;2022-09-03T13:11:57;1.48;;;1.20;;
10963;SDS011;5534;48.784;9.190;2022-09-03T13:14:24;3.85;;;1.85;;
10963;SDS011;5534;48.784;9.190;2022-09-03T13:30:46;3.05;;;1.67;;
10963;SDS011;5534;48.784;9.190;2022-09-03T13:33:31;3.30;;;1.67;;
10963;SDS011;5534;48.784;9.190;2022-09-03T13:36:16;4.35;;;1.50;;
10963;SDS011;5534;48.784;9.190;2022-09-03T13:38:49;3.42;;;1.40;;
10963;SDS011;5534;48.784;9.190;2022-09-03T13:44:10;4.13;;;2.15;;
10963;SDS011;5534;48.784;9.190;2022-09-03T13:46:56;2.78;;;1.48;;
10963;SDS011;5534;48.784;9.190;2022-09-03T13:52:51;1.50;;;1.33;;
10963;SDS011;5534;48.784;9.190;2022-09-03T13:55:34;2.38;;;1.10;;
10963;SDS011;5534;48.784;9.190;2022-09-03T13:58:25;3.22;;;1.35;;
10963;SDS011;5534;48.784;9.190;2022-09-03T14:01:24;1.42;;;1.30;;
10963;SDS011;5534;48.784;9.190;2022-09-03T14:07:37;1.98;;;1.48;;
10963;SDS011;5534;48.784;9.190;2022-09-03T14:26:47;1.42;;;1.13;;
10963;SDS011;5534;48.784;9.190;2022-09-03T14:29:16;2.38;;;1.13;;
10963;SDS011;5534;48.784;9.190;2022-09-03T14:40:28;2.03;;;1.02;;
10963;SDS011;5534;48.784;9.190;2022-09-03T15:07:22;3.67;;;1.10;;
10963;SDS011;5534;48.784;9.190;2022-09-03T15:15:21;1.50;;;1.02;;
10963;SDS011;5534;48.784;9.190;2022-09-03T15:29:17;1.02;;;0.85;;
10963;SDS011;5534;48.784;9.190;2022-09-03T15:37:26;1.05;;;0.85;;
10963;SDS011;5534;48.784;9.190;2022-09-03T15:40:15;2.53;;;1.50;;
10963;SDS011;5534;48.784;9.190;2022-09-03T15:42:51;4.88;;;2.40;;
10963;SDS011;5534;48.784;9.190;2022-09-03T15:48:04;4.55;;;1.67;;
10963;SDS011;5534;48.784;9.190;2022-09-03T15:53:35;1.48;;;1.20;;
10963;SDS011;5534;48.784;9.190;2022-09-03T15:56:15;1.73;;;1.23;;
10963;SDS011;5534;48.784;9.190;2022-09-03T16:04:24;2.13;;;1.60;;
10963;SDS011;5534;48.784;9.190;2022-09-03T16:09:53;2.03;;;1.60;;
10963;SDS011;5534;48.784;9.190;2022-09-03T16:15:26;1.92;;;1.48;;
10963;SDS011;5534;48.784;9.190;2022-09-03T16:18:21;1.95;;;1.40;;
10963;SDS011;5534;48.784;9.190;2022-09-03T16:23:50;2.70;;;1.80;;
10963;SDS011;5534;48.784;9.190;2022-09-03T16:29:15;2.10;;;1.33;;
10963;SDS011;5534;48.784;9.190;2022-09-03T16:42:06;2.60;;;1.60;;
10963;SDS011;5534;48.784;9.190;2022-09-03T16:47:54;2.92;;;1.52;;
10963;SDS011;5534;48.784;9.190;2022-09-03T16:55:55;2.35;;;1.52;;
10963;SDS011;5534;48.784;9.190;2022-09-03T16:58:43;3.35;;;1.23;;
10963;SDS011;5534;48.784;9.190;2022-09-03T17:01:32;1.98;;;1.42;;
10963;SDS011;5534;48.784;9.190;2022-09-03T17:07:35;3.25;;;1.63;;
10963;SDS011;5534;48.784;9.190;2022-09-03T17:22:01;1.60;;;1.50;;
10963;SDS011;5534;48.784;9.190;2022-09-03T17:24:43;2.35;;;1.33;;
10963;SDS011;5534;48.784;9.190;2022-09-03T17:41:41;1.10;;;1.00;;
10963;SDS011;5534;48.784;9.190;2022-09-03T17:44:16;2.35;;;1.40;;
10963;SDS011;5534;48.784;9.190;2022-09-03T17:46:59;1.67;;;1.58;;
10963;SDS011;5534;48.784;9.190;2022-09-03T17:49:42;2.95;;;1.80;;
10963;SDS011;5534;48.784;9.190;2022-09-03T17:55:29;2.85;;;1.38;;
10963;SDS011;5534;48.784;9.190;2022-09-03T17:58:09;1.98;;;1.58;;
10963;SDS011;5534;48.784;9.190;2022-09-03T18:01:01;2.22;;;1.25;;
10963;SDS011;5534;48.784;9.190;2022-09-03T18:03:40;2.25;;;1.60;;
10963;SDS011;5534;48.784;9.190;2022-09-03T18:06:21;2.10;;;1.50;;
10963;SDS011;5534;48.784;9.190;2022-09-03T18:09:05;1.20;;;1.10;;
10963;SDS011;5534;48.784;9.190;2022-09-03T18:12:03;1.30;;;1.20;;
10963;SDS011;5534;48.784;9.190;2022-09-03T18:14:53;2.45;;;1.27;;
10963;SDS011;5534;48.784;9.190;2022-09-03T18:20:09;2.90;;;1.73;;
10963;SDS011;5534;48.784;9.190;2022-09-03T18:26:14;1.83;;;1.60;;
10963;SDS011;5534;48.784;9.190;2022-09-03T18:29:11;2.97;;;2.03;;
10963;SDS011;5534;48.784;9.190;2022-09-03T18:32:15;2.05;;;1.85;;
10963;SDS011;5534;48.784;9.190;2022-09-03T18:34:59;2.85;;;1.90;;
10963;SDS011;5534;48.784;9.190;2022-09-03T18:37:43;2.92;;;2.08;;
10963;SDS011;5534;48.784;9.190;2022-09-03T18:40:30;2.92;;;1.70;;
10963;SDS011;5534;48.784;9.190;2022-09-03T18:49:31;2.13;;;1.45;;
10963;SDS011;5534;48.784;9.190;2022-09-03T18:52:29;2.20;;;1.60;;
10963;SDS011;5534;48.784;9.190;2022-09-03T19:01:43;2.55;;;1.95;;
10963;SDS011;5534;48.784;9.190;2022-09-03T19:04:32;3.13;;;1.90;;
10963;SDS011;5534;48.784;9.190;2022-09-03T19:07:30;2.90;;;2.10;;
10963;SDS011;5534;48.784;9.190;2022-09-03T19:13:33;4.15;;;2.13;;
10963;SDS011;5534;48.784;9.190;2022-09-03T19:22:35;4.15;;;2.30;;
10963;SDS011;5534;48.784;9.190;2022-09-03T19:25:24;3.90;;;1.95;;
10963;SDS011;5534;48.784;9.190;2022-09-03T19:28:23;2.67;;;2.30;;
10963;SDS011;5534;48.784;9.190;2022-09-03T19:37:04;2.58;;;1.92;;
10963;SDS011;5534;48.784;9.190;2022-09-03T19:55:48;1.95;;;1.52;;
10963;SDS011;5534;48.784;9.190;2022-09-03T19:58:44;4.57;;;2.20;;
10963;SDS011;5534;48.784;9.190;2022-09-03T20:01:38;3.58;;;2.00;;
10963;SDS011;5534;48.784;9.190;2022-09-03T20:04:46;3.97;;;1.92;;
10963;SDS011;5534;48.784;9.190;2022-09-03T20:07:32;3.45;;;2.40;;
10963;SDS011;5534;48.784;9.190;2022-09-03T20:10:18;2.88;;;2.10;;
10963;SDS011;5534;48.784;9.190;2022-09-03T20:13:02;3.25;;;2.00;;
10963;SDS011;5534;48.784;9.190;2022-09-03T20:23:55;3.67;;;2.00;;
10963;SDS011;5534;48.784;9.190;2022-09-03T20:26:29;2.78;;;1.98;;
10963;SDS011;5534;48.784;9.190;2022-09-03T20:34:52;2.33;;;1.83;;
10963;SDS011;5534;48.784;9.190;2022-09-03T20:37:40;3.13;;;2.13;;
10963;SDS011;5534;48.784;9.190;2022-09-03T20:43:51;3.22;;;2.28;;
10963;SDS011;5534;48.784;9.190;2022-09-03T20:51:35;3.00;;;2.22;;
10963;SDS011;5534;48.784;9.190;2022-09-03T20:54:19;2.92;;;1.95;;
10963;SDS011;5534;48.784;9.190;2022-09-03T21:00:31;3.25;;;2.00;;
10963;SDS011;5534;48.784;9.190;2022-09-03T21:14:08;3.47;;;2.30;;
10963;SDS011;5534;48.784;9.190;2022-09-03T21:17:07;2.63;;;2.03;;
10963;SDS011;5534;48.784;9.190;2022-09-03T21:22:51;4.30;;;2.22;;
10963;SDS011;5534;48.784;9.190;2022-09-03T21:25:29;3.33;;;2.42;;
10963;SDS011;5534;48.784;9.190;2022-09-03T21:28:05;2.70;;;2.30;;
10963;SDS011;5534;48.784;9.190;2022-09-03T21:30:34;3.40;;;2.05;;
10963;SDS011;5534;48.784;9.190;2022-09-03T21:33:09;3.05;;;2.17;;
10963;SDS011;5534;48.784;9.190;2022-09-03T21:35:48;3.22;;;2.38;;
10963;SDS011;5534;48.784;9.190;2022-09-03T21:38:22;2.70;;;2.20;;
10963;SDS011;5534;48.784;9.190;2022-09-03T21:40:53;2.75;;;2.38;;
10963;SDS011;5534;48.784;9.190;2022-09-03T21:46:18;3.35;;;2.15;;
10963;SDS011;5534;48.784;9.190;2022-09-03T21:48:55;3.53;;;2.25;;
10963;SDS011;5534;48.784;9.190;2022-09-03T22:04:28;3.13;;;2.03;;
10963;SDS011;5534;48.784;9.190;2022-09-03T22:07:11;4.82;;;1.95;;
10963;SDS011;5534;48.784;9.190;2022-09-03T22:12:29;2.00;;;1.40;;
10963;SDS011;5534;48.784;9.190;2022-09-03T22:15:02;4.13;;;2.03;;
10963;SDS011;5534;48.784;9.190;2022-09-03T22:17:36;4.53;;;2.67;;